CheckWX is a tool to help pilots better visualize weather data.  It is not intended as a substitute for an official pre-flight weather briefing.

09:39:47 UTC

KDEW METAR
Deer Park Airport
Deer Park, Washington, USA
Current

47 mins ago

KDEW 250853Z AUTO 17005KT 10SM CLR 14/06 A2986 RMK AO2 SLP100 T01390056 53002 $
Observed
Aug-25 @ 08:53 UTC
Wind
  • 170° at 5 KTS
Visibility
10 SM
Flight Rules
VFR
Cloud Levels
  • Clear skies
Temperature
14°C / 57°F
Dewpoint
C / 43°F
Humidity
59%
Altimeter
29.86" Hg
Pressure
1011.22 hPa
Previous

2 hours ago

KDEW 250753Z AUTO 06003KT 10SM CLR 10/04 A2986 RMK AO2 SLP101 T01000044 402780094 $
Observed
Aug-25 @ 07:53 UTC
Wind
  • 060° at 3 KTS
Visibility
10 SM
Flight Rules
VFR
Cloud Levels
  • Clear skies
Temperature
10°C / 50°F
Dewpoint
C / 39°F
Humidity
67%
Altimeter
29.86" Hg
Pressure
1011.22 hPa
Previous

3 hours ago

KDEW 250653Z AUTO 00000KT 10SM CLR 10/04 A2985 RMK AO2 SLP099 T01000044 $
Observed
Aug-25 @ 06:53 UTC
Visibility
10 SM
Flight Rules
VFR
Cloud Levels
  • Clear skies
Temperature
10°C / 50°F
Dewpoint
C / 39°F
Humidity
67%
Altimeter
29.85" Hg
Pressure
1010.82 hPa